createdAt,value
2022-12-03T00:00:38.446Z,102037.25
2022-12-03T00:03:05.186Z,102027.31
2022-12-03T00:05:32.202Z,102034.72
2022-12-03T00:07:59.016Z,102026.34
2022-12-03T00:10:25.682Z,102019.00
2022-12-03T00:12:52.417Z,102028.44
2022-12-03T00:15:19.246Z,102034.81
2022-12-03T00:17:46.030Z,102018.06
2022-12-03T00:20:44.721Z,101944.75
2022-12-03T00:23:12.084Z,101951.47
2022-12-03T00:25:38.787Z,101991.91
2022-12-03T00:28:06.007Z,101977.91
2022-12-03T00:36:25.477Z,101945.31
2022-12-03T00:39:50.530Z,101936.09
2022-12-03T00:42:17.276Z,102015.34
2022-12-03T00:44:45.183Z,102008.00
2022-12-03T00:47:19.995Z,101960.31
2022-12-03T00:49:52.310Z,101997.06
2022-12-03T00:52:33.918Z,101935.41
2022-12-03T00:55:01.221Z,101996.41
2022-12-03T00:57:28.130Z,101987.69
2022-12-03T00:59:58.224Z,101962.91
2022-12-03T01:02:25.723Z,101990.50
2022-12-03T01:04:52.678Z,102005.66
2022-12-03T01:07:19.592Z,102019.13
2022-12-03T01:09:46.242Z,102023.38
2022-12-03T01:12:13.103Z,102014.22
2022-12-03T01:14:39.839Z,102024.22
2022-12-03T01:17:06.992Z,102031.13
2022-12-03T01:19:35.359Z,102023.78
2022-12-03T01:22:02.778Z,102012.22
2022-12-03T01:24:29.483Z,102033.06
2022-12-03T01:26:56.837Z,102009.69
2022-12-03T01:29:23.843Z,102024.88
2022-12-03T01:32:09.239Z,102001.34
2022-12-03T01:34:35.928Z,102017.78
2022-12-03T01:37:02.751Z,102012.03
2022-12-03T01:39:29.504Z,102018.88
2022-12-03T01:41:58.815Z,102020.84
2022-12-03T01:44:31.697Z,102009.69
2022-12-03T01:47:02.464Z,102031.31
2022-12-03T01:49:41.081Z,102028.97
2022-12-03T01:52:12.879Z,102017.97
2022-12-03T01:54:43.280Z,102019.72
2022-12-03T01:57:24.735Z,102025.69
2022-12-03T01:59:52.655Z,102010.59
2022-12-03T02:02:23.457Z,102020.00
2022-12-03T02:04:53.269Z,102026.63
2022-12-03T02:07:21.257Z,102018.94
2022-12-03T02:09:48.126Z,102014.09
2022-12-03T02:12:17.788Z,102025.50
2022-12-03T02:14:44.536Z,102013.03
2022-12-03T02:17:12.492Z,102032.38
2022-12-03T02:19:39.524Z,102018.94
2022-12-03T02:22:38.593Z,102027.50
2022-12-03T02:25:14.336Z,102024.88
2022-12-03T02:27:41.559Z,102014.78
2022-12-03T02:30:08.800Z,102022.44
2022-12-03T02:32:35.652Z,102024.34
2022-12-03T02:35:02.304Z,102017.75
2022-12-03T02:37:37.466Z,102027.00
2022-12-03T02:40:09.766Z,102030.25
2022-12-03T02:42:36.936Z,102015.03
2022-12-03T02:45:06.779Z,102018.09
2022-12-03T02:47:36.450Z,102009.72
2022-12-03T02:50:03.878Z,102007.66
2022-12-03T02:52:30.879Z,101999.09
2022-12-03T02:54:58.408Z,101982.16
2022-12-03T02:57:25.142Z,102011.53
2022-12-03T02:59:52.106Z,102003.00
2022-12-03T03:02:19.262Z,102016.50
2022-12-03T03:04:46.322Z,101994.47
2022-12-03T03:07:13.544Z,101978.66
2022-12-03T03:09:40.890Z,102011.06
2022-12-03T03:12:07.760Z,102005.16
2022-12-03T03:14:34.868Z,101974.47
2022-12-03T03:17:01.880Z,101979.78
2022-12-03T03:19:28.981Z,102000.00
2022-12-03T03:21:55.883Z,101994.41
2022-12-03T03:24:23.545Z,101982.75
2022-12-03T03:26:50.770Z,102010.50
2022-12-03T03:29:17.731Z,101991.97
2022-12-03T03:31:46.610Z,101997.00
2022-12-03T03:34:14.620Z,101990.31
2022-12-03T03:36:41.703Z,101999.47
2022-12-03T03:39:09.390Z,101996.06
2022-12-03T03:41:36.913Z,101994.19
2022-12-03T03:44:06.663Z,101977.25
2022-12-03T03:46:34.491Z,101983.91
2022-12-03T03:49:03.582Z,101978.31
2022-12-03T03:51:31.082Z,101974.84
2022-12-03T03:53:58.031Z,101975.69
2022-12-03T03:56:49.786Z,101965.44
2022-12-03T03:59:32.006Z,101968.00
2022-12-03T04:01:58.689Z,101963.03
2022-12-03T04:04:27.639Z,101967.31
2022-12-03T04:06:54.540Z,101967.25
2022-12-03T04:09:21.221Z,101975.69
2022-12-03T04:12:06.411Z,101963.84
2022-12-03T04:14:33.105Z,101957.09
2022-12-03T04:16:59.968Z,101969.75
2022-12-03T04:19:26.629Z,101974.53
2022-12-03T04:22:12.054Z,101974.00
2022-12-03T04:24:38.726Z,101976.66
2022-12-03T04:27:24.007Z,101977.50
2022-12-03T04:29:50.613Z,101970.69
2022-12-03T04:32:35.460Z,101986.16
2022-12-03T04:35:20.645Z,101981.97
2022-12-03T04:37:47.434Z,101975.59
2022-12-03T04:40:33.052Z,101978.94
2022-12-03T04:42:59.728Z,101963.47
2022-12-03T04:45:26.598Z,101971.59
2022-12-03T04:47:53.263Z,101967.66
2022-12-03T04:50:19.929Z,101973.56
2022-12-03T04:52:46.560Z,101982.88
2022-12-03T04:55:13.200Z,101971.97
2022-12-03T04:57:39.845Z,101981.97
2022-12-03T05:00:07.120Z,101977.13
2022-12-03T05:02:33.858Z,101984.72
2022-12-03T05:05:00.539Z,101978.94
2022-12-03T05:07:27.187Z,101980.78
2022-12-03T05:09:54.160Z,101971.84
2022-12-03T05:12:20.761Z,101967.53
2022-12-03T05:14:47.423Z,101979.84
2022-12-03T05:17:14.241Z,101989.09
2022-12-03T05:19:59.251Z,101975.16
2022-12-03T05:22:25.985Z,101971.00
2022-12-03T05:24:53.064Z,101968.19
2022-12-03T05:27:24.462Z,101974.66
2022-12-03T05:29:51.589Z,101978.66
2022-12-03T05:32:18.847Z,101965.31
2022-12-03T05:34:45.507Z,101969.88
2022-12-03T05:37:15.160Z,101974.78
2022-12-03T05:39:41.990Z,101935.69
2022-12-03T05:42:29.851Z,101956.97
2022-12-03T05:44:56.903Z,101951.69
2022-12-03T05:47:23.618Z,101975.41
2022-12-03T05:49:50.301Z,101960.31
2022-12-03T05:52:16.897Z,101956.06
2022-12-03T05:54:43.535Z,101960.91
2022-12-03T05:57:10.531Z,101929.94
2022-12-03T05:59:37.179Z,101955.00
2022-12-03T06:02:03.902Z,101956.22
2022-12-03T06:04:30.630Z,101951.22
2022-12-03T06:06:59.316Z,101951.88
2022-12-03T06:09:25.933Z,101957.72
2022-12-03T06:11:55.669Z,101958.56
2022-12-03T06:14:22.372Z,101956.91
2022-12-03T06:16:49.008Z,101962.13
2022-12-03T06:19:15.701Z,101942.13
2022-12-03T06:21:42.325Z,101946.59
2022-12-03T06:24:09.041Z,101935.91
2022-12-03T06:26:36.290Z,101952.81
2022-12-03T06:29:02.938Z,101953.88
2022-12-03T06:31:29.832Z,101949.41
2022-12-03T06:33:56.650Z,101950.16
2022-12-03T06:36:23.629Z,101947.59
2022-12-03T06:38:50.280Z,101952.56
2022-12-03T06:41:16.976Z,101944.56
2022-12-03T06:43:43.610Z,101947.75
2022-12-03T06:46:10.294Z,101946.13
2022-12-03T06:48:37.088Z,101939.69
2022-12-03T06:51:03.882Z,101945.44
2022-12-03T06:53:30.505Z,101935.31
2022-12-03T06:55:57.458Z,101926.91
2022-12-03T06:58:24.272Z,101944.47
2022-12-03T07:00:50.916Z,101934.41
2022-12-03T07:03:17.736Z,101936.16
2022-12-03T07:05:44.455Z,101942.72
2022-12-03T07:08:11.157Z,101947.06
2022-12-03T07:10:38.005Z,101939.88
2022-12-03T07:13:04.635Z,101932.66
2022-12-03T07:15:31.331Z,101947.59
2022-12-03T07:17:58.012Z,101931.72
2022-12-03T07:20:24.681Z,101944.47
2022-12-03T07:22:51.306Z,101933.66
2022-12-03T07:25:22.928Z,101943.66
2022-12-03T07:27:50.322Z,101930.31
2022-12-03T07:30:17.543Z,101931.91
2022-12-03T07:32:44.298Z,101930.31
2022-12-03T07:35:10.963Z,101941.53
2022-12-03T07:37:37.783Z,101950.69
2022-12-03T07:40:05.793Z,101953.94
2022-12-03T07:42:32.483Z,101947.41
2022-12-03T07:44:59.103Z,101957.44
2022-12-03T07:47:26.346Z,101948.34
2022-12-03T07:49:52.995Z,101931.50
2022-12-03T07:52:19.654Z,101942.22
2022-12-03T07:54:46.321Z,101942.59
2022-12-03T07:57:13.052Z,101940.97
2022-12-03T07:59:39.715Z,101949.16
2022-12-03T08:02:06.818Z,101966.97
2022-12-03T08:04:33.580Z,101958.34
2022-12-03T08:07:00.207Z,101951.00
2022-12-03T08:09:26.962Z,101952.75
2022-12-03T08:11:54.020Z,101944.31
2022-12-03T08:14:21.227Z,101923.03
2022-12-03T08:16:48.497Z,101952.28
2022-12-03T08:19:17.206Z,101954.88
2022-12-03T08:21:44.569Z,101939.91
2022-12-03T08:24:18.535Z,101929.31
2022-12-03T08:26:48.138Z,101949.13
2022-12-03T08:29:18.520Z,101949.13
2022-12-03T08:31:59.301Z,101918.72
2022-12-03T11:18:38.028Z,101874.19
2022-12-03T11:21:32.569Z,101868.22
2022-12-03T11:23:59.240Z,101869.03
2022-12-03T11:26:37.889Z,101867.38
2022-12-03T11:29:13.309Z,101864.81
2022-12-03T11:31:40.080Z,101863.28
2022-12-03T11:34:18.679Z,101865.13
2022-12-03T11:37:13.109Z,101853.75
2022-12-03T11:39:52.642Z,101846.63
2022-12-03T11:42:26.140Z,101847.34
2022-12-03T11:45:20.239Z,101847.28
2022-12-03T11:48:02.532Z,101846.53
2022-12-03T11:50:39.354Z,101816.25
2022-12-03T11:53:26.890Z,101844.53
2022-12-03T11:56:13.099Z,101825.34
2022-12-03T11:58:43.259Z,101841.06
2022-12-03T12:01:17.336Z,101832.59
2022-12-03T12:03:47.221Z,101794.34
2022-12-03T12:06:15.895Z,101834.94
2022-12-03T12:08:57.042Z,101822.91
2022-12-03T12:11:31.957Z,101823.91
2022-12-03T12:14:26.376Z,101819.81
2022-12-03T12:16:55.379Z,101814.03
2022-12-03T12:19:42.604Z,101816.41
2022-12-03T12:22:19.307Z,101814.03
2022-12-03T12:25:06.564Z,101807.41
2022-12-03T12:27:38.267Z,101809.66
2022-12-03T12:30:14.939Z,101790.44
2022-12-03T12:32:47.420Z,101803.28
2022-12-03T12:35:22.871Z,101790.91
2022-12-03T12:37:59.969Z,101791.97
2022-12-03T12:40:32.414Z,101790.16
2022-12-03T12:43:04.314Z,101790.41
2022-12-03T12:45:39.159Z,101787.81
2022-12-03T12:48:14.847Z,101784.47
2022-12-03T12:50:43.593Z,101774.50
2022-12-03T12:53:24.069Z,101772.91
2022-12-03T12:56:12.095Z,101786.31
2022-12-03T12:58:38.768Z,101787.31
2022-12-03T13:01:11.094Z,101768.16
2022-12-03T13:03:39.880Z,101765.34
2022-12-03T13:06:11.492Z,101768.91
2022-12-03T13:08:42.850Z,101779.81
2022-12-03T13:11:26.568Z,101764.00
2022-12-03T13:13:53.321Z,101763.19
2022-12-03T13:16:28.159Z,101780.78
2022-12-03T13:18:57.001Z,101750.53
2022-12-03T13:21:32.677Z,101765.34
2022-12-03T13:24:00.477Z,101729.31
2022-12-03T13:26:39.003Z,101762.84
2022-12-03T13:29:18.662Z,101740.06
2022-12-03T13:31:52.297Z,101730.16
2022-12-03T13:34:25.241Z,101745.88
2022-12-03T13:36:58.051Z,101747.53
2022-12-03T13:39:35.366Z,101757.53
2022-12-03T13:42:26.824Z,101753.91
2022-12-03T13:44:54.822Z,101751.63
2022-12-03T13:47:28.537Z,101730.00
2022-12-03T13:49:58.069Z,101735.16
2022-12-03T13:52:26.243Z,101749.13
2022-12-03T13:54:55.985Z,101735.59
2022-12-03T17:55:10.403Z,101669.16
2022-12-03T17:57:39.686Z,101674.84
2022-12-03T18:00:07.152Z,101681.25
2022-12-03T18:02:33.858Z,101689.66
2022-12-03T18:05:00.526Z,101682.16
2022-12-03T18:07:27.276Z,101689.81
2022-12-03T18:09:54.210Z,101695.38
2022-12-03T18:12:26.528Z,101684.50
2022-12-03T18:14:53.198Z,101689.22
2022-12-03T18:17:19.860Z,101683.25
2022-12-03T18:19:46.543Z,101678.34
2022-12-03T18:22:16.485Z,101681.84
2022-12-03T18:24:46.108Z,101688.50
2022-12-03T18:27:14.265Z,101681.59
2022-12-03T18:29:40.960Z,101679.78
2022-12-03T18:32:27.252Z,101672.22
2022-12-03T18:34:55.814Z,101688.16
2022-12-03T18:37:26.112Z,101664.88
2022-12-03T18:39:53.303Z,101687.50
2022-12-03T18:42:22.352Z,101679.94
2022-12-03T18:44:53.275Z,101678.94
2022-12-03T18:47:22.627Z,101678.88
2022-12-03T18:49:49.408Z,101676.34
2022-12-03T18:52:19.264Z,101672.81
2022-12-03T18:54:46.572Z,101661.97
2022-12-03T18:57:13.568Z,101660.41
2022-12-03T18:59:40.580Z,101661.34
2022-12-03T19:02:08.328Z,101666.31
2022-12-03T19:04:35.020Z,101657.84
2022-12-03T19:07:03.529Z,101672.94
2022-12-03T19:09:30.662Z,101672.13
2022-12-03T19:11:57.355Z,101651.94
2022-12-03T19:14:23.977Z,101659.50
2022-12-03T19:16:50.857Z,101664.66
2022-12-03T19:19:18.310Z,101675.53
2022-12-03T19:21:45.006Z,101667.31
2022-12-03T19:24:27.014Z,101664.56
2022-12-03T19:26:55.543Z,101672.38
2022-12-03T19:29:23.399Z,101667.13
2022-12-03T19:31:53.423Z,101665.56
2022-12-03T19:34:20.200Z,101673.88
2022-12-03T19:36:47.649Z,101657.00
2022-12-03T19:39:14.727Z,101657.75
2022-12-03T19:41:43.675Z,101653.75
2022-12-03T19:44:14.751Z,101668.56
2022-12-03T19:46:42.001Z,101665.16
2022-12-03T19:49:09.485Z,101666.00
2022-12-03T19:51:36.740Z,101654.75
2022-12-03T19:54:08.052Z,101664.56
2022-12-03T19:56:35.077Z,101663.47
2022-12-03T19:59:02.486Z,101662.16
2022-12-03T20:01:32.160Z,101665.47
2022-12-03T20:04:01.047Z,101652.59
2022-12-03T20:07:31.466Z,101646.97
2022-12-03T20:09:32.516Z,101620.50
2022-12-03T20:11:59.386Z,101598.97
2022-12-03T20:14:26.400Z,101594.75
2022-12-03T20:16:53.143Z,101641.81
2022-12-03T20:19:42.499Z,101657.75
2022-12-03T20:22:09.369Z,101634.88
2022-12-03T20:24:36.080Z,101663.72
2022-12-03T20:27:03.063Z,101616.50
2022-12-03T20:29:29.701Z,101660.09
2022-12-03T20:31:56.511Z,101660.09
2022-12-03T20:35:03.947Z,101656.78
2022-12-03T20:37:31.375Z,101660.25
2022-12-03T20:39:58.307Z,101586.16
2022-12-03T20:42:25.288Z,101577.72
2022-12-03T20:44:53.178Z,101622.59
2022-12-03T20:47:20.377Z,101609.13
2022-12-03T20:49:47.516Z,101590.09
2022-12-03T20:52:14.231Z,101632.50
2022-12-03T20:54:41.044Z,101599.56
2022-12-03T20:57:07.899Z,101601.75
2022-12-03T20:59:43.337Z,101569.47
2022-12-03T21:02:19.230Z,101603.41
2022-12-03T21:04:46.096Z,101644.13
2022-12-03T21:07:13.226Z,101559.28
2022-12-03T21:09:40.197Z,101568.66
2022-12-03T21:12:07.264Z,101580.53
2022-12-03T21:14:34.057Z,101645.94
2022-12-03T21:17:08.353Z,101640.88
2022-12-03T21:19:38.814Z,101624.19
2022-12-03T21:22:06.171Z,101634.81
2022-12-03T21:24:33.557Z,101639.06
2022-12-03T21:27:00.265Z,101631.50
2022-12-03T21:29:26.988Z,101626.28
2022-12-03T21:31:53.939Z,101617.88
2022-12-03T21:34:20.590Z,101629.63
2022-12-03T21:36:47.356Z,101622.09
2022-12-03T21:39:17.007Z,101623.78
2022-12-03T21:42:34.800Z,101621.53
2022-12-03T21:44:30.704Z,101624.88
2022-12-03T21:47:10.204Z,101614.88
2022-12-03T21:49:40.775Z,101614.28
2022-12-03T21:52:07.562Z,101632.41
2022-12-03T21:54:34.343Z,101624.63
2022-12-03T21:57:01.055Z,101612.81
2022-12-03T21:59:30.532Z,101625.44
2022-12-03T22:01:57.284Z,101622.03
2022-12-03T22:04:26.467Z,101622.09
2022-12-03T22:06:53.184Z,101627.88
2022-12-03T22:09:26.150Z,101623.94
2022-12-03T22:11:55.538Z,101631.94
2022-12-03T22:14:22.361Z,101621.03
2022-12-03T22:16:49.098Z,101593.34
2022-12-03T22:19:15.947Z,101619.72
2022-12-03T22:21:42.821Z,101613.66
2022-12-03T22:24:09.528Z,101623.69
2022-12-03T22:26:36.208Z,101626.38
2022-12-03T22:29:02.950Z,101627.09
2022-12-03T22:31:29.578Z,101621.22
2022-12-03T22:33:56.277Z,101612.72
2022-12-03T22:36:22.932Z,101594.81
2022-12-03T22:38:51.073Z,101600.25
2022-12-03T22:41:18.590Z,101613.41
2022-12-03T22:43:46.410Z,101616.91
2022-12-03T22:46:13.917Z,101597.53
2022-12-03T22:48:42.360Z,101605.00
2022-12-03T22:51:17.658Z,101601.59
2022-12-03T22:53:44.624Z,101599.03
2022-12-03T22:56:11.936Z,101598.94
2022-12-03T22:58:40.237Z,101599.56
2022-12-03T23:01:09.477Z,101594.72
2022-12-03T23:03:36.840Z,101596.31
2022-12-03T23:06:10.957Z,101588.88
2022-12-03T23:08:38.191Z,101597.03
2022-12-03T23:11:05.244Z,101578.84
2022-12-03T23:13:32.343Z,101572.38
2022-12-03T23:15:59.340Z,101596.56
2022-12-03T23:18:26.085Z,101591.31
2022-12-03T23:20:55.829Z,101596.31
2022-12-03T23:23:25.586Z,101595.47
2022-12-03T23:26:07.844Z,101596.31
2022-12-03T23:28:36.653Z,101592.81
2022-12-03T23:31:04.310Z,101578.53
2022-12-03T23:33:37.931Z,101592.91
2022-12-03T23:36:08.713Z,101586.25
2022-12-03T23:38:35.614Z,101593.88
2022-12-03T23:41:13.631Z,101585.09
2022-12-03T23:43:44.008Z,101577.03
2022-12-03T23:46:17.888Z,101583.34
2022-12-03T23:48:45.762Z,101575.78
2022-12-03T23:51:15.720Z,101584.34
2022-12-03T23:53:43.234Z,101571.31
2022-12-03T23:56:12.849Z,101549.03
2022-12-03T23:58:39.537Z,101571.47
